< < Back
Terminal Aerodrome Forecast


Current Version              Previous Versions:   1  2  3  4  5  6  7  8  9  

Terminal Aerodrome Forecast

911
FTUS44 KHUN 300711 AAA
TAFHSV
TAF AMD
KHSV 300711Z 3007/0106 VRB04KT P6SM SCT100 BKN250
      TEMPO 3007/3009 4SM SHRA BKN030
     FM301500 19010KT P6SM SCT050 BKN100
     FM301800 21012G20KT P6SM SCT040 BKN080
     FM302000 21015G25KT P6SM VCTS BKN040CB PROB30 3020/0102
      VRB20G30KT 4SM TSRA OVC025CB
     FM010200 19005KT P6SM BKN120=

Latest METAR

975
SAUS80 KWBC 302200 CCA
MTRHSV
METAR KHSV 302153Z 31004KT 10SM FEW050 SCT110 OVC140 25/18 A2987 RMK AO2
SLP109 FRQ LTGICCG DSNT W-N CB DSNT W-N T02500183 $


USA.gov is the U.S. government's official web portal to all federal, state and local government web resources and services.